SQ8 weather

CLOSED La Romaine Water Aerodrome
La Romaine, Quebec, Canada

Public forecast

Using degrees Celsius for public forecast. Weather courtesy of forecast.io.

METAR (pilot weather report)

Closest report is Natashquan Airport, 42.8 nm (79.3 km) W. Retrieved 2019/07/20 14:00 UTC (53 minutes ago):

CYNA 201400Z AUTO 10013G21KT 9SM OVC080 15/11 A2961 RMK SLP028 DENSITY ALT 300FT

TAF (pilot weather forecast)

Closest forecast is Natashquan Airport, 42.8 nm (79.3 km) W. Retrieved 2019/07/20 14:00 UTC (53 minutes ago):

TAF CYNA 201343Z 2014/2102 10012KT P6SM OVC090 TEMPO 2014/2021 P6SM -RA FM202100 11015KT P6SM BKN015 PROB30 2021/2102 BKN006 RMK FCST BASED ON AUTO OBS. NXT FCST BY 202000Z